sensor_id;sensor_type;location;lat;lon;timestamp;pressure;altitude;pressure_sealevel;temperature;humidity
85870;BME280;76385;52.392;16.922;2024-03-22T00:00:09;101366.0;;;9.45;90.3
85870;BME280;76385;52.392;16.922;2024-03-22T00:15:09;101365.0;;;9.3;90.79
85870;BME280;76385;52.392;16.922;2024-03-22T00:30:09;101343.0;;;9.0;91.1
85870;BME280;76385;52.392;16.922;2024-03-22T00:45:09;101331.0;;;8.79;90.89
85870;BME280;76385;52.392;16.922;2024-03-22T01:00:09;101331.0;;;8.74;90.11
85870;BME280;76385;52.392;16.922;2024-03-22T01:15:09;101326.0;;;8.67;89.86
85870;BME280;76385;52.392;16.922;2024-03-22T01:30:09;101336.0;;;8.69;90.33
85870;BME280;76385;52.392;16.922;2024-03-22T01:45:09;101336.0;;;8.76;90.72
85870;BME280;76385;52.392;16.922;2024-03-22T02:00:09;101331.0;;;8.68;91.1
85870;BME280;76385;52.392;16.922;2024-03-22T02:15:09;101317.0;;;8.56;90.75
85870;BME280;76385;52.392;16.922;2024-03-22T02:30:09;101316.0;;;8.45;90.35
85870;BME280;76385;52.392;16.922;2024-03-22T02:45:09;101305.0;;;8.41;89.04
85870;BME280;76385;52.392;16.922;2024-03-22T03:00:09;101295.0;;;8.27;88.84
85870;BME280;76385;52.392;16.922;2024-03-22T03:15:09;101308.0;;;8.3;87.94
85870;BME280;76385;52.392;16.922;2024-03-22T03:30:09;101313.0;;;8.0;87.46
85870;BME280;76385;52.392;16.922;2024-03-22T03:45:09;101316.0;;;7.9;86.45
85870;BME280;76385;52.392;16.922;2024-03-22T04:00:09;101315.0;;;7.76;87.71
85870;BME280;76385;52.392;16.922;2024-03-22T04:15:09;101319.0;;;7.64;85.49
85870;BME280;76385;52.392;16.922;2024-03-22T04:30:09;101321.0;;;7.56;85.37
85870;BME280;76385;52.392;16.922;2024-03-22T04:45:09;101300.0;;;7.43;85.85
85870;BME280;76385;52.392;16.922;2024-03-22T05:00:10;101295.0;;;7.45;85.99
85870;BME280;76385;52.392;16.922;2024-03-22T05:15:10;101280.0;;;7.49;86.43
85870;BME280;76385;52.392;16.922;2024-03-22T05:30:10;101278.0;;;7.56;86.51
85870;BME280;76385;52.392;16.922;2024-03-22T05:45:10;101273.0;;;7.66;86.68
85870;BME280;76385;52.392;16.922;2024-03-22T06:00:10;101274.0;;;7.74;86.59
85870;BME280;76385;52.392;16.922;2024-03-22T06:15:10;101268.0;;;7.81;86.3
85870;BME280;76385;52.392;16.922;2024-03-22T06:30:10;101262.0;;;8.01;85.39
85870;BME280;76385;52.392;16.922;2024-03-22T06:45:09;101249.0;;;8.09;85.13
85870;BME280;76385;52.392;16.922;2024-03-22T07:00:09;101233.0;;;8.17;85.55
85870;BME280;76385;52.392;16.922;2024-03-22T07:15:09;101218.0;;;8.3;85.54
85870;BME280;76385;52.392;16.922;2024-03-22T07:30:09;101213.0;;;8.41;84.07
85870;BME280;76385;52.392;16.922;2024-03-22T07:45:09;101199.0;;;8.54;82.96
85870;BME280;76385;52.392;16.922;2024-03-22T08:00:09;101174.0;;;8.93;82.24
85870;BME280;76385;52.392;16.922;2024-03-22T08:15:09;101162.0;;;9.57;78.6
85870;BME280;76385;52.392;16.922;2024-03-22T08:30:09;101164.0;;;9.36;78.44
85870;BME280;76385;52.392;16.922;2024-03-22T08:45:09;101158.0;;;9.43;78.26
85870;BME280;76385;52.392;16.922;2024-03-22T09:00:09;101138.0;;;9.91;77.26
85870;BME280;76385;52.392;16.922;2024-03-22T09:15:09;101100.0;;;10.2;75.91
85870;BME280;76385;52.392;16.922;2024-03-22T09:30:09;101088.0;;;10.63;74.53
85870;BME280;76385;52.392;16.922;2024-03-22T09:45:09;101067.0;;;10.97;73.29
85870;BME280;76385;52.392;16.922;2024-03-22T10:00:09;101047.0;;;11.67;70.63
85870;BME280;76385;52.392;16.922;2024-03-22T10:15:09;101027.0;;;12.18;68.85
85870;BME280;76385;52.392;16.922;2024-03-22T10:30:09;101010.0;;;11.86;68.4
85870;BME280;76385;52.392;16.922;2024-03-22T10:45:09;100980.0;;;11.86;69.07
85870;BME280;76385;52.392;16.922;2024-03-22T11:00:09;100960.0;;;11.7;72.32
85870;BME280;76385;52.392;16.922;2024-03-22T11:15:09;100947.0;;;11.72;71.81
85870;BME280;76385;52.392;16.922;2024-03-22T11:30:09;100942.0;;;11.38;74.21
85870;BME280;76385;52.392;16.922;2024-03-22T11:45:09;100892.0;;;11.23;75.93
85870;BME280;76385;52.392;16.922;2024-03-22T12:00:10;100861.0;;;11.45;75.22
85870;BME280;76385;52.392;16.922;2024-03-22T12:15:09;100847.0;;;11.43;74.06
85870;BME280;76385;52.392;16.922;2024-03-22T12:30:10;100828.0;;;11.56;73.25
85870;BME280;76385;52.392;16.922;2024-03-22T12:45:10;100799.0;;;11.58;72.79
85870;BME280;76385;52.392;16.922;2024-03-22T13:00:10;100769.0;;;11.75;71.47
85870;BME280;76385;52.392;16.922;2024-03-22T13:15:10;100763.0;;;11.8;70.91
85870;BME280;76385;52.392;16.922;2024-03-22T13:30:09;100725.0;;;11.89;69.28
85870;BME280;76385;52.392;16.922;2024-03-22T13:45:10;100717.0;;;12.08;68.57
85870;BME280;76385;52.392;16.922;2024-03-22T14:00:09;100691.0;;;12.29;67.71
85870;BME280;76385;52.392;16.922;2024-03-22T14:15:09;100667.0;;;12.48;67.19
85870;BME280;76385;52.392;16.922;2024-03-22T14:30:09;100632.0;;;12.36;66.54
85870;BME280;76385;52.392;16.922;2024-03-22T14:45:09;100626.0;;;12.52;66.34
85870;BME280;76385;52.392;16.922;2024-03-22T15:00:09;100609.0;;;12.59;64.99
85870;BME280;76385;52.392;16.922;2024-03-22T15:15:09;100599.0;;;12.48;68.29
85870;BME280;76385;52.392;16.922;2024-03-22T15:30:09;100590.0;;;12.21;69.81
85870;BME280;76385;52.392;16.922;2024-03-22T15:45:09;100585.0;;;12.05;71.91
85870;BME280;76385;52.392;16.922;2024-03-22T16:00:09;100572.0;;;11.74;75.73
85870;BME280;76385;52.392;16.922;2024-03-22T16:15:09;100556.0;;;11.43;78.96
85870;BME280;76385;52.392;16.922;2024-03-22T16:30:09;100549.0;;;11.32;79.65
85870;BME280;76385;52.392;16.922;2024-03-22T16:45:09;100541.0;;;11.21;80.85
85870;BME280;76385;52.392;16.922;2024-03-22T17:00:09;100555.0;;;11.12;82.56
85870;BME280;76385;52.392;16.922;2024-03-22T17:15:09;100568.0;;;10.95;83.24
85870;BME280;76385;52.392;16.922;2024-03-22T17:30:09;100565.0;;;10.82;83.6
85870;BME280;76385;52.392;16.922;2024-03-22T17:45:09;100553.0;;;10.62;85.38
85870;BME280;76385;52.392;16.922;2024-03-22T18:00:09;100536.0;;;10.57;86.25
85870;BME280;76385;52.392;16.922;2024-03-22T18:15:09;100532.0;;;10.56;87.21
85870;BME280;76385;52.392;16.922;2024-03-22T18:30:09;100528.0;;;10.5;87.85
85870;BME280;76385;52.392;16.922;2024-03-22T18:45:09;100519.0;;;10.44;88.2
85870;BME280;76385;52.392;16.922;2024-03-22T19:00:09;100506.0;;;10.34;89.51
85870;BME280;76385;52.392;16.922;2024-03-22T19:15:09;100497.0;;;10.19;90.33
85870;BME280;76385;52.392;16.922;2024-03-22T19:30:10;100485.0;;;10.11;90.91
85870;BME280;76385;52.392;16.922;2024-03-22T19:45:10;100467.0;;;10.06;91.53
85870;BME280;76385;52.392;16.922;2024-03-22T20:00:10;100461.0;;;10.02;92.22
85870;BME280;76385;52.392;16.922;2024-03-22T20:15:10;100448.0;;;9.96;92.63
85870;BME280;76385;52.392;16.922;2024-03-22T20:30:10;100439.0;;;9.91;92.92
